Time;durP1;ratioP1;P1;durP2;ratioP2;P2;SDS_P1;SDS_P2;PMS_P1;PMS_P2;Temp;Humidity;BMP_temperature;BMP_pressure;BME280_temperature;BME280_humidity;BME280_pressure;Samples;Min_cycle;Max_cycle;Signal;HPM_P1;HPM_P2
2022/04/05 00:02:26;;;;;;;99.07;55.45;;;;;;;;;;5055534;28;20028;-60
2022/04/05 00:04:52;;;;;;;97.47;51.97;;;;;;;;;;5055201;28;20028;-57
2022/04/05 00:07:18;;;;;;;100.35;53.22;;;;;;;;;;5054900;28;20025;-60
2022/04/05 00:09:44;;;;;;;89.35;49.92;;;;;;;;;;5055419;28;20017;-55
2022/04/05 00:12:10;;;;;;;96.15;51.05;;;;;;;;;;5055128;28;20458;-60
2022/04/05 00:14:36;;;;;;;93.07;50.70;;;;;;;;;;5054839;28;20162;-59
2022/04/05 00:17:03;;;;;;;98.68;53.15;;;;;;;;;;5055202;28;20045;-55
2022/04/05 00:19:29;;;;;;;90.38;50.63;;;;;;;;;;5055803;28;20029;-58
2022/04/05 00:21:55;;;;;;;90.00;50.92;;;;;;;;;;5055315;28;20025;-62
2022/04/05 00:24:21;;;;;;;89.97;49.25;;;;;;;;;;5055180;28;20104;-59
2022/04/05 00:26:48;;;;;;;89.85;48.53;;;;;;;;;;5055133;28;20450;-59
2022/04/05 00:29:15;;;;;;;85.35;46.05;;;;;;;;;;5054310;28;20158;-58
2022/04/05 00:31:41;;;;;;;62.13;36.30;;;;;;;;;;5054780;28;20025;-58
2022/04/05 00:34:07;;;;;;;60.63;35.47;;;;;;;;;;5054664;28;20013;-58
2022/04/05 00:36:33;;;;;;;66.50;36.58;;;;;;;;;;5054861;28;20041;-58
2022/04/05 00:38:59;;;;;;;65.85;32.85;;;;;;;;;;5054948;28;20064;-56
2022/04/05 00:41:26;;;;;;;63.42;34.58;;;;;;;;;;5054789;28;20027;-60
2022/04/05 00:43:52;;;;;;;60.00;31.73;;;;;;;;;;5054303;28;20415;-58
2022/04/05 00:46:18;;;;;;;73.53;39.72;;;;;;;;;;5054459;28;20029;-56
2022/04/05 00:48:58;;;;;;;80.68;45.00;;;;;;;;;;5054409;28;20416;-60
2022/04/05 00:51:25;;;;;;;93.38;50.95;;;;;;;;;;5055182;28;20017;-61
2022/04/05 00:53:53;;;;;;;97.85;51.33;;;;;;;;;;5054699;28;20110;-56
2022/04/05 00:56:20;;;;;;;97.75;51.30;;;;;;;;;;5053968;28;20029;-59
2022/04/05 00:58:52;;;;;;;96.53;52.30;;;;;;;;;;5055064;28;20025;-56
2022/04/05 01:01:19;;;;;;;89.50;50.22;;;;;;;;;;5055074;28;20477;-58
2022/04/05 01:03:50;;;;;;;88.93;50.38;;;;;;;;;;5054022;28;20036;-61
2022/04/05 01:06:17;;;;;;;88.13;49.28;;;;;;;;;;5054964;28;20029;-57
2022/04/05 01:08:46;;;;;;;84.45;47.45;;;;;;;;;;5053988;28;20028;-60
2022/04/05 01:11:12;;;;;;;87.28;48.67;;;;;;;;;;5053656;28;20037;-57
2022/04/05 01:13:38;;;;;;;82.38;45.08;;;;;;;;;;5054288;28;20025;-59
2022/04/05 01:16:05;;;;;;;60.63;34.20;;;;;;;;;;5053687;28;20482;-56
2022/04/05 01:18:31;;;;;;;61.42;34.03;;;;;;;;;;5054050;28;20111;-60
2022/04/05 01:20:57;;;;;;;50.58;31.52;;;;;;;;;;5054227;28;20100;-58
2022/04/05 01:23:23;;;;;;;75.45;38.63;;;;;;;;;;5053964;28;20033;-58
2022/04/05 01:25:51;;;;;;;78.45;44.10;;;;;;;;;;5052782;28;20347;-62
2022/04/05 01:28:17;;;;;;;55.95;32.75;;;;;;;;;;5054343;28;20021;-60
2022/04/05 01:30:43;;;;;;;55.17;32.92;;;;;;;;;;5053387;28;20355;-58
2022/04/05 01:33:10;;;;;;;51.08;31.98;;;;;;;;;;5053904;28;20071;-54
2022/04/05 01:35:36;;;;;;;78.57;43.53;;;;;;;;;;5054134;28;20025;-57
2022/04/05 01:38:03;;;;;;;81.00;43.97;;;;;;;;;;5053497;28;20473;-59
2022/04/05 01:40:30;;;;;;;83.13;45.85;;;;;;;;;;5053807;28;20031;-54
2022/04/05 01:42:56;;;;;;;83.00;46.83;;;;;;;;;;5054039;28;20103;-59
2022/04/05 01:45:22;;;;;;;81.95;46.67;;;;;;;;;;5053455;28;20096;-58
2022/04/05 01:47:49;;;;;;;87.88;48.05;;;;;;;;;;5053697;28;20057;-59
2022/04/05 01:50:15;;;;;;;80.85;46.30;;;;;;;;;;5053700;28;20025;-59
2022/04/05 01:52:41;;;;;;;84.55;47.97;;;;;;;;;;5053400;28;20028;-56
2022/04/05 01:55:08;;;;;;;98.82;52.60;;;;;;;;;;5052950;28;20033;-57
2022/04/05 01:57:34;;;;;;;86.60;50.00;;;;;;;;;;5053387;28;20063;-56
2022/04/05 02:00:02;;;;;;;92.72;50.70;;;;;;;;;;5052960;28;20415;-58
2022/04/05 02:02:28;;;;;;;87.43;46.20;;;;;;;;;;5053369;28;20028;-59
2022/04/05 02:04:54;;;;;;;82.88;44.25;;;;;;;;;;5053746;28;20028;-61
2022/04/05 02:07:20;;;;;;;87.55;46.15;;;;;;;;;;5053012;28;20029;-59
2022/04/05 02:09:48;;;;;;;91.47;46.53;;;;;;;;;;5053219;28;20486;-60
2022/04/05 02:12:16;;;;;;;87.55;47.90;;;;;;;;;;5053384;28;20048;-59
2022/04/05 02:14:42;;;;;;;82.90;45.05;;;;;;;;;;5053919;28;20029;-59
2022/04/05 02:17:08;;;;;;;83.35;43.95;;;;;;;;;;5053484;28;20049;-57
2022/04/05 02:19:36;;;;;;;81.25;45.35;;;;;;;;;;5053037;28;20025;-58
2022/04/05 02:22:02;;;;;;;88.40;45.20;;;;;;;;;;5053347;28;20029;-58
2022/04/05 02:24:29;;;;;;;85.55;46.80;;;;;;;;;;5053608;28;20505;-60
2022/04/05 02:26:55;;;;;;;80.53;43.67;;;;;;;;;;5053090;28;20108;-59
2022/04/05 02:29:21;;;;;;;91.55;47.17;;;;;;;;;;5053344;28;20074;-58
2022/04/05 02:31:47;;;;;;;84.95;47.42;;;;;;;;;;5053328;28;20444;-60
2022/04/05 02:34:13;;;;;;;89.78;46.45;;;;;;;;;;5052681;28;20126;-59
2022/04/05 02:36:39;;;;;;;90.00;46.42;;;;;;;;;;5053168;28;20090;-57
2022/04/05 02:39:06;;;;;;;90.32;46.08;;;;;;;;;;5053488;28;20466;-57
2022/04/05 02:41:33;;;;;;;84.35;44.40;;;;;;;;;;5052934;28;20022;-60
2022/04/05 02:43:59;;;;;;;78.68;44.60;;;;;;;;;;5053160;28;20021;-58
2022/04/05 02:46:26;;;;;;;81.80;43.70;;;;;;;;;;5053432;28;20356;-58
2022/04/05 02:48:54;;;;;;;86.85;44.80;;;;;;;;;;5052834;28;20033;-56
2022/04/05 02:51:21;;;;;;;79.22;43.42;;;;;;;;;;5053092;28;20055;-58
2022/04/05 02:53:47;;;;;;;82.90;42.20;;;;;;;;;;5053389;28;20024;-59
2022/04/05 02:56:13;;;;;;;72.75;40.72;;;;;;;;;;5052686;28;20025;-59
2022/04/05 02:58:40;;;;;;;72.53;40.10;;;;;;;;;;5053358;28;20032;-59
2022/04/05 03:01:06;;;;;;;67.68;38.92;;;;;;;;;;5052907;28;20029;-59
2022/04/05 03:03:33;;;;;;;75.00;41.45;;;;;;;;;;5053294;28;20021;-60
2022/04/05 03:05:59;;;;;;;79.07;41.65;;;;;;;;;;5052953;28;20162;-59
2022/04/05 03:08:25;;;;;;;80.60;43.60;;;;;;;;;;5055612;28;20458;-60
2022/04/05 03:10:53;;;;;;;90.72;46.42;;;;;;;;;;5056613;28;20106;-57
2022/04/05 03:13:19;;;;;;;88.28;47.92;;;;;;;;;;5056846;28;20065;-57
2022/04/05 03:15:45;;;;;;;82.38;45.08;;;;;;;;;;5054715;28;20626;-56
2022/04/05 03:18:12;;;;;;;84.60;46.60;;;;;;;;;;5056636;28;20033;-56
2022/04/05 03:20:38;;;;;;;78.85;45.28;;;;;;;;;;5056389;28;20021;-59
2022/04/05 03:23:04;;;;;;;83.45;44.80;;;;;;;;;;5056062;28;20083;-59
2022/04/05 03:25:31;;;;;;;80.82;44.33;;;;;;;;;;5055942;28;20118;-60
2022/04/05 03:28:01;;;;;;;80.57;44.47;;;;;;;;;;5056554;28;20099;-58
2022/04/05 03:30:27;;;;;;;92.75;48.83;;;;;;;;;;5055611;28;20087;-58
2022/04/05 03:32:53;;;;;;;92.28;47.25;;;;;;;;;;5056248;28;20056;-61
2022/04/05 03:35:19;;;;;;;87.22;48.13;;;;;;;;;;5056113;28;20099;-60
2022/04/05 03:37:46;;;;;;;84.65;46.72;;;;;;;;;;5055822;28;20036;-59
2022/04/05 03:40:12;;;;;;;78.45;44.95;;;;;;;;;;5054793;28;20462;-61
2022/04/05 03:42:38;;;;;;;82.40;45.25;;;;;;;;;;5056004;28;20172;-56
2022/04/05 03:45:05;;;;;;;77.43;45.05;;;;;;;;;;5055619;28;20108;-58
2022/04/05 03:47:31;;;;;;;83.10;45.53;;;;;;;;;;5055458;28;20052;-59
2022/04/05 03:49:57;;;;;;;81.43;45.08;;;;;;;;;;5055533;28;20029;-60
2022/04/05 03:52:25;;;;;;;79.47;44.38;;;;;;;;;;5055671;28;20108;-60
2022/04/05 03:54:52;;;;;;;77.30;42.80;;;;;;;;;;5055022;28;20489;-58
2022/04/05 03:57:18;;;;;;;80.07;42.88;;;;;;;;;;5054503;28;20453;-59
2022/04/05 03:59:45;;;;;;;106.20;54.03;;;;;;;;;;5054489;28;20091;-61
2022/04/05 04:02:11;;;;;;;169.48;76.45;;;;;;;;;;5054801;28;20025;-59
2022/04/05 04:04:38;;;;;;;231.88;100.90;;;;;;;;;;5054948;28;20028;-61
2022/04/05 04:07:29;;;;;;;182.32;87.30;;;;;;;;;;5054811;28;20029;-59
2022/04/05 04:10:02;;;;;;;78.30;43.22;;;;;;;;;;5054193;28;20017;-60
2022/04/05 04:12:28;;;;;;;78.50;43.03;;;;;;;;;;5054616;28;20036;-55
2022/04/05 04:14:54;;;;;;;81.15;43.42;;;;;;;;;;5054668;28;20074;-59
2022/04/05 04:17:20;;;;;;;89.55;46.00;;;;;;;;;;5055258;28;20059;-58
2022/04/05 04:19:47;;;;;;;80.80;45.08;;;;;;;;;;5053814;28;20440;-59
2022/04/05 04:22:13;;;;;;;87.57;45.85;;;;;;;;;;5055277;28;20033;-60
2022/04/05 04:24:39;;;;;;;99.38;46.17;;;;;;;;;;5055429;28;20029;-61
2022/04/05 04:27:06;;;;;;;83.82;44.28;;;;;;;;;;5054807;28;20029;-61
2022/04/05 04:29:33;;;;;;;90.45;45.08;;;;;;;;;;5054769;28;20067;-60
2022/04/05 04:31:59;;;;;;;67.70;39.22;;;;;;;;;;5054738;28;20124;-60
2022/04/05 04:34:25;;;;;;;68.65;38.85;;;;;;;;;;5055172;28;20096;-58
2022/04/05 04:36:51;;;;;;;65.53;38.90;;;;;;;;;;5055330;28;20104;-62
2022/04/05 04:39:18;;;;;;;66.85;36.42;;;;;;;;;;5055141;28;20108;-57
2022/04/05 04:41:44;;;;;;;72.03;40.72;;;;;;;;;;5054791;28;20032;-60
2022/04/05 04:44:10;;;;;;;62.08;36.65;;;;;;;;;;5054851;28;20017;-58
2022/04/05 04:46:37;;;;;;;72.05;38.03;;;;;;;;;;5054595;28;20086;-59
2022/04/05 04:49:03;;;;;;;65.55;34.65;;;;;;;;;;5055124;28;20033;-59
2022/04/05 04:51:29;;;;;;;66.10;34.60;;;;;;;;;;5054606;28;20017;-59
2022/04/05 04:53:55;;;;;;;71.93;37.78;;;;;;;;;;5054004;28;20468;-59
2022/04/05 04:56:21;;;;;;;77.53;42.00;;;;;;;;;;5054816;28;20040;-59
2022/04/05 04:58:47;;;;;;;79.80;42.67;;;;;;;;;;5054792;28;20027;-59
2022/04/05 05:01:14;;;;;;;62.53;33.85;;;;;;;;;;5054145;28;20147;-59
2022/04/05 05:03:40;;;;;;;57.15;32.17;;;;;;;;;;5053748;28;20112;-60
2022/04/05 05:06:06;;;;;;;61.88;34.00;;;;;;;;;;5053754;28;20458;-60
2022/04/05 05:08:33;;;;;;;66.57;38.58;;;;;;;;;;5054159;28;20032;-60
2022/04/05 05:10:59;;;;;;;96.88;53.60;;;;;;;;;;5053627;28;20350;-59
2022/04/05 05:13:25;;;;;;;107.50;60.03;;;;;;;;;;5053405;28;20021;-59
2022/04/05 05:15:52;;;;;;;121.30;62.33;;;;;;;;;;5053275;28;20081;-59
2022/04/05 05:18:18;;;;;;;108.07;57.10;;;;;;;;;;5038940;28;20117;-56
2022/04/05 05:20:44;;;;;;;89.40;51.85;;;;;;;;;;5034482;28;20028;-60
2022/04/05 05:23:11;;;;;;;87.82;49.42;;;;;;;;;;5033548;28;20120;-58
2022/04/05 05:25:37;;;;;;;83.97;47.80;;;;;;;;;;5034407;28;20371;-61
2022/04/05 05:28:03;;;;;;;74.43;43.13;;;;;;;;;;5033929;28;20034;-60
2022/04/05 05:30:29;;;;;;;72.25;42.25;;;;;;;;;;5034262;28;20108;-59
2022/04/05 05:32:56;;;;;;;81.57;46.90;;;;;;;;;;5033748;28;20029;-60
2022/04/05 05:35:22;;;;;;;85.15;48.33;;;;;;;;;;5033424;28;20471;-57
2022/04/05 05:37:50;;;;;;;86.68;50.58;;;;;;;;;;5033808;28;20359;-57
2022/04/05 05:40:17;;;;;;;93.85;57.20;;;;;;;;;;5034087;28;20105;-59
2022/04/05 05:42:50;;;;;;;92.53;55.90;;;;;;;;;;5033726;28;20018;-59
2022/04/05 05:45:16;;;;;;;128.23;68.55;;;;;;;;;;5033770;28;20101;-58
2022/04/05 05:47:42;;;;;;;114.82;61.72;;;;;;;;;;5031823;28;20073;-62
2022/04/05 05:50:10;;;;;;;112.28;64.82;;;;;;;;;;5031485;28;20095;-60
2022/04/05 05:52:36;;;;;;;100.20;57.58;;;;;;;;;;5032826;28;20104;-59
2022/04/05 05:55:03;;;;;;;95.15;54.63;;;;;;;;;;5033558;28;20370;-57
2022/04/05 05:57:29;;;;;;;98.28;56.40;;;;;;;;;;5032933;28;20029;-59
2022/04/05 05:59:56;;;;;;;82.95;50.95;;;;;;;;;;5034222;28;20033;-59
2022/04/05 06:02:22;;;;;;;87.18;49.08;;;;;;;;;;5033627;28;20101;-57
2022/04/05 06:04:48;;;;;;;90.13;49.63;;;;;;;;;;5033085;28;20105;-61
2022/04/05 06:07:14;;;;;;;90.78;49.03;;;;;;;;;;5033572;28;20072;-58
2022/04/05 06:09:40;;;;;;;93.45;48.35;;;;;;;;;;5033672;28;20040;-58
2022/04/05 06:12:07;;;;;;;103.40;50.03;;;;;;;;;;5033257;28;20021;-58
2022/04/05 06:14:33;;;;;;;81.38;45.90;;;;;;;;;;5033316;28;20537;-60
2022/04/05 06:16:59;;;;;;;80.45;43.17;;;;;;;;;;5033709;28;20060;-59
2022/04/05 06:19:25;;;;;;;80.68;43.88;;;;;;;;;;5033507;28;20026;-59
2022/04/05 06:21:51;;;;;;;88.85;47.78;;;;;;;;;;5033458;28;20029;-60
2022/04/05 06:24:19;;;;;;;109.70;54.47;;;;;;;;;;5033171;28;20462;-59
2022/04/05 06:26:45;;;;;;;84.30;47.45;;;;;;;;;;5033848;28;20420;-59
2022/04/05 06:29:11;;;;;;;73.13;42.33;;;;;;;;;;5033155;28;20077;-59
2022/04/05 06:31:37;;;;;;;78.63;40.97;;;;;;;;;;5033171;28;20557;-60
2022/04/05 06:34:04;;;;;;;82.20;42.88;;;;;;;;;;5033313;28;20026;-60
2022/04/05 06:36:30;;;;;;;73.63;41.83;;;;;;;;;;5033383;28;20440;-60
2022/04/05 06:38:56;;;;;;;70.43;40.42;;;;;;;;;;5032981;28;20022;-59
2022/04/05 06:41:23;;;;;;;69.75;41.05;;;;;;;;;;5033133;28;20467;-55
2022/04/05 06:43:49;;;;;;;74.30;44.03;;;;;;;;;;5037124;28;20390;-60
2022/04/05 06:46:16;;;;;;;95.10;52.15;;;;;;;;;;5036735;28;20029;-60
2022/04/05 06:48:42;;;;;;;87.35;50.10;;;;;;;;;;5037073;28;20100;-58
2022/04/05 06:51:09;;;;;;;108.60;61.08;;;;;;;;;;5037607;28;20021;-58
2022/04/05 06:53:35;;;;;;;125.28;70.95;;;;;;;;;;5036594;28;20425;-58
2022/04/05 06:56:01;;;;;;;105.53;59.63;;;;;;;;;;5036962;28;20096;-59
2022/04/05 06:58:27;;;;;;;99.10;55.35;;;;;;;;;;5036711;28;20030;-59
2022/04/05 07:00:53;;;;;;;92.90;55.22;;;;;;;;;;5036838;28;20029;-60
2022/04/05 07:03:20;;;;;;;93.03;55.33;;;;;;;;;;5036485;28;20103;-61
2022/04/05 07:05:46;;;;;;;98.03;56.13;;;;;;;;;;5036387;28;20027;-60
2022/04/05 07:08:12;;;;;;;88.13;53.92;;;;;;;;;;5036282;28;20037;-60
2022/04/05 07:10:38;;;;;;;95.25;55.75;;;;;;;;;;5036738;28;20025;-60
2022/04/05 07:13:05;;;;;;;86.55;52.03;;;;;;;;;;5037059;28;20026;-60
2022/04/05 07:15:31;;;;;;;82.18;50.30;;;;;;;;;;5036160;28;20033;-60
2022/04/05 07:17:57;;;;;;;78.03;45.28;;;;;;;;;;5036572;28;20021;-59
2022/04/05 07:20:23;;;;;;;79.60;44.17;;;;;;;;;;5035819;28;20022;-60
2022/04/05 07:22:50;;;;;;;78.65;44.45;;;;;;;;;;5036704;28;20037;-60
2022/04/05 07:25:19;;;;;;;68.13;42.83;;;;;;;;;;5036395;28;20024;-60
2022/04/05 07:27:46;;;;;;;65.47;38.45;;;;;;;;;;5036488;28;20033;-58
2022/04/05 07:30:13;;;;;;;64.22;40.95;;;;;;;;;;5036316;28;20108;-58
2022/04/05 07:32:44;;;;;;;59.83;37.58;;;;;;;;;;5036247;28;20061;-60
2022/04/05 07:35:13;;;;;;;61.40;37.08;;;;;;;;;;5035780;28;20025;-59
2022/04/05 07:37:39;;;;;;;57.25;35.70;;;;;;;;;;5036088;28;20076;-62
2022/04/05 07:40:08;;;;;;;51.60;33.20;;;;;;;;;;5036152;28;20033;-57
2022/04/05 07:42:35;;;;;;;63.70;36.10;;;;;;;;;;5035724;28;20060;-60
2022/04/05 07:45:01;;;;;;;62.30;35.83;;;;;;;;;;5036081;28;20033;-56
2022/04/05 07:47:27;;;;;;;54.63;30.40;;;;;;;;;;5035593;28;20116;-56
2022/04/05 07:49:53;;;;;;;39.53;25.00;;;;;;;;;;5035480;28;20017;-60
2022/04/05 07:52:19;;;;;;;47.22;29.60;;;;;;;;;;5035850;28;20083;-55
2022/04/05 07:54:46;;;;;;;46.90;27.90;;;;;;;;;;5034633;28;20020;-60
2022/04/05 07:57:13;;;;;;;45.40;27.15;;;;;;;;;;5035111;28;20132;-59
2022/04/05 07:59:39;;;;;;;44.17;27.80;;;;;;;;;;5035721;28;20075;-61
2022/04/05 08:02:05;;;;;;;45.88;26.77;;;;;;;;;;5035177;28;20479;-60
2022/04/05 08:04:32;;;;;;;40.55;25.85;;;;;;;;;;5035376;28;20030;-58
2022/04/05 08:06:58;;;;;;;39.25;23.77;;;;;;;;;;5035823;28;20029;-58
2022/04/05 08:09:24;;;;;;;38.97;23.77;;;;;;;;;;5035331;28;20030;-60
2022/04/05 08:11:50;;;;;;;35.35;24.92;;;;;;;;;;5035350;28;20025;-60
2022/04/05 08:14:16;;;;;;;41.90;24.58;;;;;;;;;;5035652;28;20026;-57
2022/04/05 08:16:42;;;;;;;39.00;24.55;;;;;;;;;;5034923;28;20061;-59
2022/04/05 08:19:09;;;;;;;38.95;25.70;;;;;;;;;;5035267;28;20025;-58
2022/04/05 08:21:36;;;;;;;38.28;24.05;;;;;;;;;;5035340;28;20101;-58
2022/04/05 08:24:04;;;;;;;37.83;23.42;;;;;;;;;;5034730;28;20021;-58
2022/04/05 08:26:30;;;;;;;38.63;24.73;;;;;;;;;;5035432;28;20039;-60
2022/04/05 08:28:56;;;;;;;38.40;25.30;;;;;;;;;;5035223;28;20036;-60
2022/04/05 08:31:23;;;;;;;45.42;26.27;;;;;;;;;;5034706;28;20021;-61
2022/04/05 08:33:49;;;;;;;47.03;26.38;;;;;;;;;;5035080;28;20025;-60
2022/04/05 08:36:15;;;;;;;43.03;25.42;;;;;;;;;;5034808;28;20052;-60
2022/04/05 08:38:42;;;;;;;39.72;25.83;;;;;;;;;;5034511;28;20021;-59
2022/04/05 08:41:08;;;;;;;43.65;26.02;;;;;;;;;;5034652;28;20026;-59
2022/04/05 08:43:36;;;;;;;39.13;24.35;;;;;;;;;;5034976;28;20032;-60
2022/04/05 08:46:05;;;;;;;40.28;25.23;;;;;;;;;;5034079;28;20022;-58
2022/04/05 08:48:32;;;;;;;40.97;25.67;;;;;;;;;;5034965;28;20056;-60
2022/04/05 08:50:59;;;;;;;40.90;26.23;;;;;;;;;;5034370;28;20151;-61
2022/04/05 08:53:25;;;;;;;38.65;24.73;;;;;;;;;;5035280;28;20021;-60
2022/04/05 08:55:51;;;;;;;34.63;21.38;;;;;;;;;;5034656;28;20037;-60
2022/04/05 08:58:18;;;;;;;36.70;22.83;;;;;;;;;;5034022;28;20083;-59
2022/04/05 09:00:44;;;;;;;38.75;22.02;;;;;;;;;;5034574;28;20032;-57
2022/04/05 09:03:10;;;;;;;31.15;21.95;;;;;;;;;;5034278;28;20518;-60
2022/04/05 09:05:38;;;;;;;38.97;24.13;;;;;;;;;;5033869;28;20107;-60
2022/04/05 09:08:17;;;;;;;42.92;28.95;;;;;;;;;;5034334;28;20061;-60
2022/04/05 09:10:44;;;;;;;48.53;28.27;;;;;;;;;;5034099;28;20029;-60
2022/04/05 09:13:11;;;;;;;37.92;23.33;;;;;;;;;;5034164;28;20382;-60
2022/04/05 09:15:38;;;;;;;38.30;23.50;;;;;;;;;;5034520;28;20036;-59
2022/04/05 09:18:05;;;;;;;30.58;17.85;;;;;;;;;;5034060;28;20029;-61
2022/04/05 09:20:43;;;;;;;22.10;15.25;;;;;;;;;;5033609;28;20099;-59
2022/04/05 09:23:22;;;;;;;25.23;14.80;;;;;;;;;;5034548;28;20037;-58
2022/04/05 09:25:55;;;;;;;17.33;11.13;;;;;;;;;;5033925;28;20478;-58
2022/04/05 09:28:37;;;;;;;21.33;12.20;;;;;;;;;;5034569;28;20545;-60
2022/04/05 09:31:04;;;;;;;29.88;17.92;;;;;;;;;;5034379;28;20374;-60
2022/04/05 09:33:32;;;;;;;28.17;17.15;;;;;;;;;;5033608;28;20026;-60
2022/04/05 09:36:07;;;;;;;28.60;17.70;;;;;;;;;;5033937;28;20026;-61
2022/04/05 09:38:33;;;;;;;17.70;12.30;;;;;;;;;;5033894;28;20026;-59
2022/04/05 09:41:09;;;;;;;9.30;6.38;;;;;;;;;;5032754;28;20401;-60
2022/04/05 09:43:36;;;;;;;7.13;4.32;;;;;;;;;;5034104;28;20021;-58
2022/04/05 09:46:02;;;;;;;6.68;5.00;;;;;;;;;;5034023;28;20061;-59
2022/04/05 09:48:30;;;;;;;8.48;4.35;;;;;;;;;;5033524;28;20398;-60
2022/04/05 09:51:12;;;;;;;5.50;3.90;;;;;;;;;;5033771;28;20048;-59
2022/04/05 09:53:52;;;;;;;6.32;3.63;;;;;;;;;;5034245;28;20029;-61
2022/04/05 09:56:22;;;;;;;4.82;3.33;;;;;;;;;;5033250;28;20116;-59
2022/04/05 09:58:49;;;;;;;7.75;3.95;;;;;;;;;;5033903;28;20100;-59
2022/04/05 10:01:15;;;;;;;6.75;4.03;;;;;;;;;;5033101;28;20021;-59
2022/04/05 10:03:43;;;;;;;6.85;3.67;;;;;;;;;;5033335;28;20025;-59
2022/04/05 10:06:09;;;;;;;7.97;4.75;;;;;;;;;;5033463;28;20018;-61
2022/04/05 10:08:37;;;;;;;6.35;4.45;;;;;;;;;;5033180;28;20018;-59
2022/04/05 10:11:04;;;;;;;8.93;4.90;;;;;;;;;;5033171;28;20032;-60
2022/04/05 10:13:30;;;;;;;8.45;6.68;;;;;;;;;;5034065;28;20488;-60
2022/04/05 10:15:57;;;;;;;9.93;5.82;;;;;;;;;;5032796;28;20051;-58
2022/04/05 10:18:31;;;;;;;6.28;4.35;;;;;;;;;;5037926;28;20068;-58
2022/04/05 10:20:57;;;;;;;6.63;4.68;;;;;;;;;;5037666;28;20565;-61
2022/04/05 10:23:23;;;;;;;5.93;4.55;;;;;;;;;;5037334;28;20053;-59
2022/04/05 10:25:51;;;;;;;8.27;5.07;;;;;;;;;;5037155;28;20497;-56
2022/04/05 10:28:20;;;;;;;6.35;5.07;;;;;;;;;;5037290;28;20119;-59
2022/04/05 10:31:02;;;;;;;6.85;4.85;;;;;;;;;;5037081;28;20054;-61
2022/04/05 10:33:31;;;;;;;8.18;5.88;;;;;;;;;;5037174;28;20072;-61
2022/04/05 10:35:58;;;;;;;7.68;5.35;;;;;;;;;;5037088;28;20094;-61
2022/04/05 10:38:25;;;;;;;6.97;5.35;;;;;;;;;;5037293;28;20377;-59
2022/04/05 10:41:09;;;;;;;7.97;5.25;;;;;;;;;;5037535;28;20068;-59
2022/04/05 10:43:38;;;;;;;6.47;4.70;;;;;;;;;;5037094;28;20034;-59
2022/04/05 10:46:05;;;;;;;8.63;5.28;;;;;;;;;;5037049;28;20551;-57
2022/04/05 10:48:34;;;;;;;8.00;4.70;;;;;;;;;;5037151;28;20204;-61
2022/04/05 10:51:00;;;;;;;8.02;4.35;;;;;;;;;;5036751;28;20112;-58
2022/04/05 10:53:33;;;;;;;7.03;4.22;;;;;;;;;;5037065;28;20060;-60
2022/04/05 10:56:11;;;;;;;6.90;4.50;;;;;;;;;;5036556;28;20013;-59
2022/04/05 10:58:37;;;;;;;6.40;4.07;;;;;;;;;;5036346;28;20097;-60
2022/04/05 11:01:20;;;;;;;6.38;4.30;;;;;;;;;;5036833;28;20057;-57
2022/04/05 11:04:05;;;;;;;6.72;3.97;;;;;;;;;;5036627;28;20029;-60
2022/04/05 11:06:51;;;;;;;6.40;4.30;;;;;;;;;;5036700;28;20042;-60
2022/04/05 11:09:27;;;;;;;9.82;5.68;;;;;;;;;;5036336;28;20109;-59
2022/04/05 11:11:54;;;;;;;5.63;3.88;;;;;;;;;;5036784;28;20032;-56
2022/04/05 11:14:52;;;;;;;9.38;5.65;;;;;;;;;;5036731;28;20104;-61
2022/04/05 11:17:20;;;;;;;6.90;4.07;;;;;;;;;;5013386;28;20094;-60
2022/04/05 11:19:47;;;;;;;7.13;4.70;;;;;;;;;;5036076;28;20029;-60
2022/04/05 11:22:23;;;;;;;7.18;5.30;;;;;;;;;;5036386;28;20057;-60
2022/04/05 11:24:55;;;;;;;5.57;3.90;;;;;;;;;;5036263;28;20021;-58
2022/04/05 11:27:29;;;;;;;4.85;3.42;;;;;;;;;;5035501;28;20332;-59
2022/04/05 11:30:13;;;;;;;6.75;5.47;;;;;;;;;;5036729;28;20025;-61
2022/04/05 11:32:39;;;;;;;5.43;3.97;;;;;;;;;;5035699;28;20060;-59
2022/04/05 11:35:06;;;;;;;4.20;3.80;;;;;;;;;;5036180;28;20025;-59
2022/04/05 11:37:35;;;;;;;6.25;5.47;;;;;;;;;;5036076;28;20026;-60
2022/04/05 11:40:02;;;;;;;5.72;3.88;;;;;;;;;;5036078;28;20029;-62
2022/04/05 11:42:28;;;;;;;5.53;3.53;;;;;;;;;;5035849;28;20029;-62
2022/04/05 11:44:55;;;;;;;5.80;3.60;;;;;;;;;;5036699;28;20021;-57
2022/04/05 11:47:21;;;;;;;3.63;3.33;;;;;;;;;;5035403;28;20029;-61
2022/04/05 11:49:48;;;;;;;5.85;3.22;;;;;;;;;;5036422;28;20109;-60
2022/04/05 11:52:14;;;;;;;4.47;3.42;;;;;;;;;;5036028;28;20028;-59
2022/04/05 11:57:25;;;;;;;8.07;5.00;;;;;;;;;;5035935;28;20170;-61
2022/04/05 12:00:04;;;;;;;6.22;3.90;;;;;;;;;;5035732;28;20029;-62
2022/04/05 12:02:30;;;;;;;4.35;3.90;;;;;;;;;;5036406;28;20108;-58
2022/04/05 12:04:57;;;;;;;7.07;4.00;;;;;;;;;;5035825;28;20533;-62
2022/04/05 12:07:23;;;;;;;6.55;3.70;;;;;;;;;;5035737;28;20087;-59
2022/04/05 12:09:49;;;;;;;4.85;3.45;;;;;;;;;;5035433;28;20055;-57
2022/04/05 12:12:15;;;;;;;5.95;4.13;;;;;;;;;;5035339;28;20021;-57
2022/04/05 12:14:41;;;;;;;4.78;3.33;;;;;;;;;;5035800;28;20108;-59
2022/04/05 12:17:08;;;;;;;5.80;3.85;;;;;;;;;;5035254;28;20109;-60
2022/04/05 12:19:35;;;;;;;4.32;3.15;;;;;;;;;;5034991;28;20428;-60
2022/04/05 12:22:11;;;;;;;8.27;3.92;;;;;;;;;;5035219;28;20513;-58
2022/04/05 12:24:57;;;;;;;6.93;5.90;;;;;;;;;;5035377;28;20466;-60
2022/04/05 12:27:24;;;;;;;7.13;3.60;;;;;;;;;;5035401;28;20041;-60
2022/04/05 12:29:56;;;;;;;5.45;3.40;;;;;;;;;;5032934;28;20100;-61
2022/04/05 12:32:22;;;;;;;6.07;3.67;;;;;;;;;;5033327;28;20021;-61
2022/04/05 12:34:48;;;;;;;6.68;3.80;;;;;;;;;;5033268;28;20387;-61
2022/04/05 12:37:16;;;;;;;9.70;4.25;;;;;;;;;;5033133;28;20029;-61
2022/04/05 12:39:47;;;;;;;7.63;4.07;;;;;;;;;;5034181;28;20068;-62
2022/04/05 12:42:13;;;;;;;4.63;3.67;;;;;;;;;;5034810;28;20049;-61
2022/04/05 17:52:14;;;;;;;26.45;16.65;;;;;;;;;;4768503;29;20055;-56
2022/04/05 17:54:40;;;;;;;40.42;24.25;;;;;;;;;;4936683;29;20098;-56
2022/04/05 18:00:19;;;;;;;42.97;26.70;;;;;;;;;;4935784;29;20591;-53
2022/04/05 18:02:46;;;;;;;44.67;27.10;;;;;;;;;;4936575;29;20078;-55
2022/04/05 18:05:12;;;;;;;49.97;27.60;;;;;;;;;;4936511;29;20079;-55
2022/04/05 18:07:44;;;;;;;47.63;27.90;;;;;;;;;;4936116;29;20028;-54
2022/04/05 18:10:11;;;;;;;49.25;26.42;;;;;;;;;;4936475;29;20055;-55
2022/04/05 18:12:41;;;;;;;39.80;25.33;;;;;;;;;;4936046;29;20024;-56
2022/04/05 18:15:07;;;;;;;55.10;32.08;;;;;;;;;;4936049;29;20469;-55
2022/04/05 18:17:33;;;;;;;49.28;30.00;;;;;;;;;;4936344;29;20032;-54
2022/04/05 18:20:00;;;;;;;57.88;30.80;;;;;;;;;;4936343;29;20392;-56
2022/04/05 18:22:27;;;;;;;53.33;32.83;;;;;;;;;;4936006;29;20102;-54
2022/04/05 18:24:53;;;;;;;44.60;26.70;;;;;;;;;;4936272;29;20027;-57
2022/04/05 18:27:20;;;;;;;42.45;25.27;;;;;;;;;;4936233;29;20594;-51
2022/04/05 18:29:47;;;;;;;40.03;24.95;;;;;;;;;;4935912;29;20031;-54
2022/04/05 18:32:13;;;;;;;40.83;26.85;;;;;;;;;;4936156;29;20019;-55
2022/04/05 18:34:39;;;;;;;46.22;26.10;;;;;;;;;;4936787;29;20028;-56
2022/04/05 18:37:05;;;;;;;41.42;24.02;;;;;;;;;;4935811;29;20036;-52
2022/04/05 18:39:32;;;;;;;44.83;26.33;;;;;;;;;;4939674;29;20032;-56
2022/04/05 18:41:58;;;;;;;43.30;24.95;;;;;;;;;;4939999;29;20024;-56
2022/04/05 18:44:24;;;;;;;37.40;20.67;;;;;;;;;;4939350;29;20543;-53
2022/04/05 18:46:50;;;;;;;51.05;25.77;;;;;;;;;;4939944;29;20091;-56
2022/04/05 18:49:16;;;;;;;35.67;21.13;;;;;;;;;;4939620;29;20469;-57
2022/04/05 18:51:42;;;;;;;35.53;20.80;;;;;;;;;;4939623;29;20059;-54
2022/04/05 18:54:10;;;;;;;38.58;23.60;;;;;;;;;;4939448;29;20038;-56
2022/04/05 18:56:36;;;;;;;43.90;23.98;;;;;;;;;;4939081;29;20028;-56
2022/04/05 18:59:03;;;;;;;41.20;22.33;;;;;;;;;;4939645;29;20036;-52
2022/04/05 19:01:29;;;;;;;50.83;28.85;;;;;;;;;;4939862;29;20111;-55
2022/04/05 19:03:55;;;;;;;60.40;32.95;;;;;;;;;;4939276;29;20035;-55
2022/04/05 19:06:22;;;;;;;53.85;31.83;;;;;;;;;;4938925;29;20111;-55
2022/04/05 19:08:48;;;;;;;42.63;24.13;;;;;;;;;;4939408;29;20031;-57
2022/04/05 19:11:15;;;;;;;41.92;24.25;;;;;;;;;;4938652;29;20488;-53
2022/04/05 19:13:41;;;;;;;44.80;26.63;;;;;;;;;;4939098;29;20227;-56
2022/04/05 19:16:07;;;;;;;39.10;23.15;;;;;;;;;;4939354;29;20028;-55
2022/04/05 19:18:35;;;;;;;36.05;21.50;;;;;;;;;;4938979;29;20028;-57
2022/04/05 19:21:03;;;;;;;39.03;23.67;;;;;;;;;;4938928;29;20046;-55
2022/04/05 19:23:29;;;;;;;44.88;24.58;;;;;;;;;;4939179;29;20028;-55
2022/04/05 19:25:59;;;;;;;43.03;25.65;;;;;;;;;;4937051;29;20031;-53
2022/04/05 19:28:28;;;;;;;52.35;28.25;;;;;;;;;;4939141;29;20476;-55
2022/04/05 19:30:59;;;;;;;66.80;34.58;;;;;;;;;;4939061;29;20110;-53
2022/04/05 19:33:26;;;;;;;52.63;30.60;;;;;;;;;;4938630;29;20031;-52
2022/04/05 19:35:52;;;;;;;38.50;22.50;;;;;;;;;;4938970;29;20034;-56
2022/04/05 19:38:18;;;;;;;25.38;15.52;;;;;;;;;;4939306;29;20031;-55